createdAt,value
2023-02-14T00:00:37.828Z,2.10
2023-02-14T00:01:37.801Z,2.00
2023-02-14T00:02:37.852Z,2.00
2023-02-14T00:03:37.770Z,1.95
2023-02-14T00:04:37.787Z,1.80
2023-02-14T00:05:37.762Z,1.74
2023-02-14T00:06:37.732Z,1.73
2023-02-14T00:07:37.727Z,1.67
2023-02-14T00:08:37.715Z,1.68
2023-02-14T00:09:37.691Z,1.68
2023-02-14T00:10:37.692Z,1.67
2023-02-14T00:11:37.670Z,1.68
2023-02-14T00:12:37.682Z,1.67
2023-02-14T00:13:37.649Z,1.70
2023-02-14T00:14:37.626Z,1.67
2023-02-14T00:15:37.651Z,1.73
2023-02-14T00:16:37.610Z,1.73
2023-02-14T00:17:37.594Z,1.70
2023-02-14T00:18:37.585Z,1.73
2023-02-14T00:19:37.570Z,1.70
2023-02-14T00:20:37.550Z,1.66
2023-02-14T00:21:37.557Z,1.68
2023-02-14T00:22:37.528Z,1.66
2023-02-14T00:23:37.524Z,1.60
2023-02-14T00:24:37.507Z,1.62
2023-02-14T00:25:37.499Z,1.60
2023-02-14T00:26:37.495Z,1.59
2023-02-14T00:27:37.464Z,1.55
2023-02-14T00:28:37.521Z,1.55
2023-02-14T00:29:37.441Z,1.50
2023-02-14T00:30:37.558Z,1.48
2023-02-14T00:31:37.547Z,1.49
2023-02-14T00:32:37.397Z,1.44
2023-02-14T00:33:37.407Z,1.48
2023-02-14T00:34:37.373Z,1.44
2023-02-14T00:35:37.359Z,1.42
2023-02-14T00:36:37.359Z,1.48
2023-02-14T00:37:37.334Z,1.45
2023-02-14T00:38:37.334Z,1.48
2023-02-14T00:39:37.317Z,1.45
2023-02-14T00:40:37.293Z,1.44
2023-02-14T00:41:37.301Z,1.37
2023-02-14T00:42:37.275Z,1.41
2023-02-14T00:43:37.260Z,1.38
2023-02-14T00:44:37.263Z,1.37
2023-02-14T00:45:37.245Z,1.40
2023-02-14T00:46:37.248Z,1.38
2023-02-14T00:47:37.212Z,1.40
2023-02-14T00:48:37.190Z,1.42
2023-02-14T00:49:37.189Z,1.44
2023-02-14T00:50:37.165Z,1.45
2023-02-14T00:51:37.192Z,1.48
2023-02-14T00:52:37.145Z,1.48
2023-02-14T00:53:37.133Z,1.53
2023-02-14T00:54:37.113Z,1.52
2023-02-14T00:55:37.107Z,1.49
2023-02-14T00:56:37.110Z,1.49
2023-02-14T00:57:37.086Z,1.49
2023-02-14T00:58:37.067Z,1.55
2023-02-14T00:59:37.061Z,1.52
2023-02-14T01:00:37.078Z,1.48
2023-02-14T01:01:37.072Z,1.45
2023-02-14T01:02:37.061Z,1.42
2023-02-14T01:03:37.049Z,1.45
2023-02-14T01:04:36.993Z,1.42
2023-02-14T01:05:36.983Z,1.48
2023-02-14T01:06:36.976Z,1.44
2023-02-14T01:07:36.978Z,1.44
2023-02-14T01:08:36.935Z,1.48
2023-02-14T01:09:36.930Z,1.45
2023-02-14T01:10:36.914Z,1.41
2023-02-14T01:11:36.912Z,1.42
2023-02-14T01:12:36.902Z,1.41
2023-02-14T01:13:36.874Z,1.42
2023-02-14T01:14:36.857Z,1.41
2023-02-14T01:15:36.851Z,1.42
2023-02-14T01:16:36.975Z,1.41
2023-02-14T01:17:36.839Z,1.38
2023-02-14T01:18:36.809Z,1.40
2023-02-14T01:19:36.820Z,1.35
2023-02-14T01:20:36.784Z,1.37
2023-02-14T01:21:36.770Z,1.35
2023-02-14T01:22:36.774Z,1.35
2023-02-14T01:23:36.744Z,1.34
2023-02-14T01:24:36.736Z,1.32
2023-02-14T01:25:36.731Z,1.26
2023-02-14T01:26:36.718Z,1.30
2023-02-14T01:27:36.712Z,1.32
2023-02-14T01:28:36.683Z,1.32
2023-02-14T01:29:36.666Z,1.31
2023-02-14T01:30:36.688Z,1.37
2023-02-14T01:31:36.810Z,1.34
2023-02-14T01:32:36.690Z,1.32
2023-02-14T01:33:36.615Z,1.32
2023-02-14T01:34:36.599Z,1.28
2023-02-14T01:35:36.592Z,1.28
2023-02-14T01:36:36.573Z,1.23
2023-02-14T01:37:36.578Z,1.24
2023-02-14T01:38:36.550Z,1.19
2023-02-14T01:39:36.546Z,1.16
2023-02-14T01:40:36.530Z,1.14
2023-02-14T01:41:36.534Z,1.13
2023-02-14T01:42:36.516Z,1.12
2023-02-14T01:43:36.488Z,1.04
2023-02-14T01:44:36.481Z,0.96
2023-02-14T01:45:36.493Z,1.02
2023-02-14T01:46:36.480Z,1.05
2023-02-14T01:47:36.456Z,1.01
2023-02-14T01:48:36.446Z,0.96
2023-02-14T01:49:36.429Z,0.95
2023-02-14T01:50:36.403Z,0.94
2023-02-14T01:51:36.389Z,0.92
2023-02-14T01:52:36.386Z,0.80
2023-02-14T01:53:36.369Z,0.80
2023-02-14T01:54:36.352Z,0.73
2023-02-14T01:55:36.339Z,0.68
2023-02-14T01:56:36.323Z,0.69
2023-02-14T01:57:36.319Z,0.70
2023-02-14T01:58:36.294Z,0.68
2023-02-14T01:59:36.291Z,0.60
2023-02-14T02:00:36.268Z,0.63
2023-02-14T02:01:36.368Z,0.58
2023-02-14T02:02:36.398Z,0.56
2023-02-14T02:03:36.236Z,0.49
2023-02-14T02:04:36.245Z,0.50
2023-02-14T02:05:36.226Z,0.49
2023-02-14T02:06:36.199Z,0.46
2023-02-14T02:07:36.181Z,0.41
2023-02-14T02:08:36.180Z,0.46
2023-02-14T02:09:36.158Z,0.50
2023-02-14T02:10:36.137Z,0.49
2023-02-14T02:11:36.135Z,0.40
2023-02-14T02:12:36.116Z,0.36
2023-02-14T02:13:36.114Z,0.37
2023-02-14T02:14:36.084Z,0.37
2023-02-14T02:15:36.076Z,0.34
2023-02-14T02:16:36.156Z,0.25
2023-02-14T02:17:36.051Z,0.16
2023-02-14T02:18:36.046Z,0.18
2023-02-14T02:19:36.024Z,0.10
2023-02-14T02:20:36.033Z,0.03
2023-02-14T02:21:36.007Z,0.03
2023-02-14T02:22:35.985Z,0.04
2023-02-14T02:23:35.982Z,0.03
2023-02-14T02:24:35.963Z,0.03
2023-02-14T02:25:35.942Z,-0.07
2023-02-14T02:26:35.930Z,-0.08
2023-02-14T02:27:35.915Z,-0.11
2023-02-14T02:28:35.919Z,-0.08
2023-02-14T02:29:35.906Z,-0.14
2023-02-14T02:30:36.224Z,-0.11
2023-02-14T02:31:36.032Z,-0.10
2023-02-14T02:32:35.850Z,-0.08
2023-02-14T02:33:35.853Z,-0.11
2023-02-14T02:34:35.826Z,-0.08
2023-02-14T02:35:35.816Z,-0.07
2023-02-14T02:36:35.821Z,-0.07
2023-02-14T02:37:35.790Z,-0.10
2023-02-14T02:38:35.793Z,-0.08
2023-02-14T02:39:35.773Z,-0.07
2023-02-14T02:40:35.768Z,-0.07
2023-02-14T02:41:35.739Z,-0.08
2023-02-14T02:42:35.730Z,-0.13
2023-02-14T02:43:35.746Z,-0.15
2023-02-14T02:44:35.704Z,-0.17
2023-02-14T02:45:37.038Z,-0.17
2023-02-14T02:46:35.679Z,-0.21
2023-02-14T02:47:35.670Z,-0.25
2023-02-14T02:48:35.670Z,-0.28
2023-02-14T02:49:35.638Z,-0.23
2023-02-14T02:50:35.629Z,-0.25
2023-02-14T02:51:35.616Z,-0.29
2023-02-14T02:52:35.624Z,-0.28
2023-02-14T02:53:35.610Z,-0.23
2023-02-14T02:54:35.575Z,-0.25
2023-02-14T02:55:35.564Z,-0.18
2023-02-14T02:56:35.549Z,-0.10
2023-02-14T02:57:35.554Z,-0.06
2023-02-14T02:58:35.545Z,-0.06
2023-02-14T02:59:35.512Z,-0.03
2023-02-14T03:00:35.505Z,0.01
2023-02-14T03:01:35.547Z,0.01
2023-02-14T03:02:35.471Z,0.03
2023-02-14T03:03:35.476Z,0.00
2023-02-14T03:04:35.570Z,0.04
2023-02-14T03:05:35.454Z,0.04
2023-02-14T03:06:35.423Z,-0.02
2023-02-14T03:07:35.437Z,-0.03
2023-02-14T03:08:35.505Z,-0.08
2023-02-14T03:09:35.396Z,-0.14
2023-02-14T03:10:35.377Z,-0.10
2023-02-14T03:11:35.368Z,-0.10
2023-02-14T03:12:35.373Z,-0.15
2023-02-14T03:13:35.341Z,-0.15
2023-02-14T03:14:35.360Z,-0.18
2023-02-14T03:15:35.387Z,-0.25
2023-02-14T03:16:35.335Z,-0.29
2023-02-14T03:17:35.290Z,-0.28
2023-02-14T03:18:35.277Z,-0.31
2023-02-14T03:19:35.279Z,-0.32
2023-02-14T03:20:35.250Z,-0.32
2023-02-14T03:21:35.243Z,-0.38
2023-02-14T03:22:35.238Z,-0.43
2023-02-14T03:23:35.216Z,-0.50
2023-02-14T03:24:35.240Z,-0.49
2023-02-14T03:25:35.200Z,-0.43
2023-02-14T03:26:35.183Z,-0.47
2023-02-14T03:27:35.163Z,-0.41
2023-02-14T03:28:35.158Z,-0.39
2023-02-14T03:29:35.156Z,-0.38
2023-02-14T03:30:35.136Z,-0.35
2023-02-14T03:31:35.242Z,-0.39
2023-02-14T03:32:35.111Z,-0.32
2023-02-14T03:33:35.110Z,-0.25
2023-02-14T03:34:35.099Z,-0.25
2023-02-14T03:35:35.072Z,-0.18
2023-02-14T03:36:35.057Z,-0.15
2023-02-14T03:37:35.043Z,-0.18
2023-02-14T03:38:35.032Z,-0.17
2023-02-14T03:39:35.027Z,-0.14
2023-02-14T03:40:35.068Z,-0.11
2023-02-14T03:41:34.996Z,-0.11
2023-02-14T03:42:34.980Z,-0.10
2023-02-14T03:43:34.984Z,-0.06
2023-02-14T03:44:34.979Z,0.04
2023-02-14T03:45:35.077Z,0.05
2023-02-14T03:46:35.015Z,0.11
2023-02-14T03:47:34.913Z,0.19
2023-02-14T03:48:34.911Z,0.19
2023-02-14T03:49:34.923Z,0.26
2023-02-14T03:50:34.901Z,0.26
2023-02-14T03:51:34.874Z,0.29
2023-02-14T03:52:34.857Z,0.36
2023-02-14T03:53:34.873Z,0.40
2023-02-14T03:54:34.861Z,0.41
2023-02-14T03:55:34.826Z,0.46
2023-02-14T03:56:34.825Z,0.47
2023-02-14T03:57:34.791Z,0.50
2023-02-14T03:58:34.820Z,0.47
2023-02-14T03:59:34.792Z,0.52
2023-02-14T04:00:34.758Z,0.55
2023-02-14T04:01:34.864Z,0.55
2023-02-14T04:02:34.728Z,0.60
2023-02-14T04:03:34.739Z,0.63
2023-02-14T04:04:34.738Z,0.66
2023-02-14T04:05:34.702Z,0.69
2023-02-14T04:06:34.679Z,0.69
2023-02-14T04:07:34.658Z,0.73
2023-02-14T04:08:34.650Z,0.74
2023-02-14T04:09:34.651Z,0.77
2023-02-14T04:10:34.627Z,0.77
2023-02-14T04:11:34.616Z,0.76
2023-02-14T04:12:38.069Z,0.77
2023-02-14T04:13:34.591Z,0.76
2023-02-14T04:14:34.594Z,0.76
2023-02-14T04:15:34.628Z,0.77
2023-02-14T04:16:34.548Z,0.81
2023-02-14T04:17:34.538Z,0.81
2023-02-14T04:18:34.528Z,0.78
2023-02-14T04:19:34.509Z,0.83
2023-02-14T04:20:34.511Z,0.81
2023-02-14T04:21:34.496Z,0.77
2023-02-14T04:22:34.479Z,0.80
2023-02-14T04:23:34.455Z,0.73
2023-02-14T04:24:34.443Z,0.74
2023-02-14T04:25:34.439Z,0.76
2023-02-14T04:26:34.420Z,0.69
2023-02-14T04:27:34.402Z,0.68
2023-02-14T04:28:34.416Z,0.76
2023-02-14T04:29:34.375Z,0.65
2023-02-14T04:30:34.376Z,0.63
2023-02-14T04:31:34.558Z,0.66
2023-02-14T04:32:34.340Z,0.66
2023-02-14T04:33:34.337Z,0.68
2023-02-14T04:34:34.311Z,0.68
2023-02-14T04:35:34.313Z,0.60
2023-02-14T04:36:34.287Z,0.65
2023-02-14T04:37:34.271Z,0.60
2023-02-14T04:38:34.254Z,0.56
2023-02-14T04:39:34.241Z,0.58
2023-02-14T04:40:34.257Z,0.63
2023-02-14T04:41:34.213Z,0.58
2023-02-14T04:42:34.209Z,0.60
2023-02-14T04:43:34.189Z,0.60
2023-02-14T04:44:34.217Z,0.65
2023-02-14T04:45:34.175Z,0.62
2023-02-14T04:46:34.233Z,0.62
2023-02-14T04:47:34.142Z,0.58
2023-02-14T04:48:34.126Z,0.52
2023-02-14T04:49:34.114Z,0.49
2023-02-14T04:50:34.112Z,0.55
2023-02-14T04:51:34.087Z,0.56
2023-02-14T04:52:34.075Z,0.58
2023-02-14T04:53:34.058Z,0.60
2023-02-14T04:54:34.051Z,0.62
2023-02-14T04:55:34.053Z,0.60
2023-02-14T04:56:34.026Z,0.62
2023-02-14T04:57:34.006Z,0.65
2023-02-14T04:58:34.010Z,0.60
2023-02-14T04:59:33.989Z,0.62
2023-02-14T05:00:34.134Z,0.65
2023-02-14T05:01:33.961Z,0.59
2023-02-14T05:02:33.949Z,0.49
2023-02-14T05:03:33.934Z,0.41
2023-02-14T05:04:33.914Z,0.44
2023-02-14T05:05:33.916Z,0.46
2023-02-14T05:06:33.888Z,0.47
2023-02-14T05:07:33.880Z,0.47
2023-02-14T05:08:33.868Z,0.50
2023-02-14T05:09:33.845Z,0.47
2023-02-14T05:10:33.850Z,0.37
2023-02-14T05:11:33.825Z,0.34
2023-02-14T05:12:33.812Z,0.39
2023-02-14T05:13:33.804Z,0.34
2023-02-14T05:14:33.789Z,0.37
2023-02-14T05:15:33.781Z,0.39
2023-02-14T05:16:33.855Z,0.23
2023-02-14T05:17:33.746Z,0.23
2023-02-14T05:18:33.733Z,0.26
2023-02-14T05:19:33.716Z,0.22
2023-02-14T05:20:33.724Z,0.19
2023-02-14T05:21:33.703Z,0.23
2023-02-14T05:22:33.677Z,0.25
2023-02-14T05:23:33.667Z,0.29
2023-02-14T05:24:33.650Z,0.29
2023-02-14T05:25:33.650Z,0.32
2023-02-14T05:26:33.643Z,0.36
2023-02-14T05:27:33.612Z,0.31
2023-02-14T05:28:33.602Z,0.28
2023-02-14T05:29:33.589Z,0.25
2023-02-14T05:30:33.659Z,0.16
2023-02-14T05:31:33.675Z,0.11
2023-02-14T05:32:33.573Z,0.16
2023-02-14T05:33:33.534Z,0.26
2023-02-14T05:34:33.520Z,0.31
2023-02-14T05:35:33.508Z,0.28
2023-02-14T05:36:33.512Z,0.34
2023-02-14T05:37:33.484Z,0.39
2023-02-14T05:38:33.470Z,0.46
2023-02-14T05:39:33.459Z,0.50
2023-02-14T05:40:33.445Z,0.56
2023-02-14T05:41:33.441Z,0.60
2023-02-14T05:42:33.416Z,0.65
2023-02-14T05:43:33.406Z,0.70
2023-02-14T05:44:33.393Z,0.73
2023-02-14T05:45:33.485Z,0.76
2023-02-14T05:46:33.381Z,0.76
2023-02-14T05:47:33.355Z,0.76
2023-02-14T05:48:33.376Z,0.77
2023-02-14T05:49:33.336Z,0.78
2023-02-14T05:50:33.320Z,0.78
2023-02-14T05:51:33.319Z,0.81
2023-02-14T05:52:33.311Z,0.81
2023-02-14T05:53:33.282Z,0.87
2023-02-14T05:54:33.266Z,0.83
2023-02-14T05:55:33.252Z,0.76
2023-02-14T05:56:33.258Z,0.74
2023-02-14T05:57:33.230Z,0.80
2023-02-14T05:58:33.234Z,0.87
2023-02-14T05:59:33.213Z,0.91
2023-02-14T06:00:33.270Z,0.99
2023-02-14T06:01:33.200Z,0.91
2023-02-14T06:02:33.216Z,0.92
2023-02-14T06:03:33.155Z,0.96
2023-02-14T06:04:33.304Z,0.98
2023-02-14T06:05:33.128Z,1.04
2023-02-14T06:06:35.607Z,0.92
2023-02-14T06:07:33.105Z,0.76
2023-02-14T06:08:33.129Z,0.76
2023-02-14T06:09:33.078Z,0.83
2023-02-14T06:10:33.068Z,0.86
2023-02-14T06:11:33.084Z,0.88
2023-02-14T06:12:33.038Z,0.92
2023-02-14T06:13:33.030Z,0.81
2023-02-14T06:14:33.019Z,0.88
2023-02-14T06:15:33.007Z,0.88
2023-02-14T06:16:33.018Z,0.92
2023-02-14T06:17:32.989Z,0.94
2023-02-14T06:18:32.968Z,1.02
2023-02-14T06:19:32.954Z,1.05
2023-02-14T06:20:32.976Z,1.06
2023-02-14T06:21:32.957Z,1.10
2023-02-14T06:22:32.914Z,1.14
2023-02-14T06:23:32.906Z,1.19
2023-02-14T06:24:32.889Z,1.23
2023-02-14T06:25:32.909Z,1.28
2023-02-14T06:26:32.879Z,1.28
2023-02-14T06:27:32.864Z,1.37
2023-02-14T06:28:32.840Z,1.32
2023-02-14T06:29:32.832Z,1.34
2023-02-14T06:30:33.001Z,1.41
2023-02-14T06:31:32.939Z,1.40
2023-02-14T06:32:32.813Z,1.41
2023-02-14T06:33:32.776Z,1.44
2023-02-14T06:34:32.768Z,1.48
2023-02-14T06:35:32.753Z,1.48
2023-02-14T06:36:32.773Z,1.52
2023-02-14T06:37:32.733Z,1.56
2023-02-14T06:38:32.713Z,1.59
2023-02-14T06:39:32.707Z,1.60
2023-02-14T06:40:32.681Z,1.59
2023-02-14T06:41:32.896Z,1.67
2023-02-14T06:42:32.663Z,1.68
2023-02-14T06:43:32.650Z,1.71
2023-02-14T06:44:32.636Z,1.68
2023-02-14T06:45:32.633Z,1.63
2023-02-14T06:46:32.647Z,1.67
2023-02-14T06:47:34.879Z,1.68
2023-02-14T06:48:32.590Z,1.74
2023-02-14T06:49:32.579Z,1.80
2023-02-14T06:50:32.554Z,1.84
2023-02-14T06:51:32.548Z,1.76
2023-02-14T06:52:32.567Z,1.63
2023-02-14T06:53:32.524Z,1.53
2023-02-14T06:54:32.504Z,1.60
2023-02-14T06:55:32.498Z,1.66
2023-02-14T06:56:32.484Z,1.66
2023-02-14T06:57:32.483Z,1.60
2023-02-14T06:58:32.458Z,1.67
2023-02-14T06:59:32.449Z,1.59
2023-02-14T07:00:32.434Z,1.63
2023-02-14T07:01:32.505Z,1.68
2023-02-14T07:02:32.509Z,1.76
2023-02-14T07:03:32.394Z,1.80
2023-02-14T07:04:32.375Z,1.87
2023-02-14T07:05:32.368Z,1.89
2023-02-14T07:06:32.351Z,1.89
2023-02-14T07:07:32.359Z,1.95
2023-02-14T07:08:32.345Z,1.99
2023-02-14T07:09:32.317Z,1.99
2023-02-14T07:10:32.315Z,1.95
2023-02-14T07:11:32.304Z,2.00
2023-02-14T07:12:32.290Z,2.02
2023-02-14T07:13:32.265Z,2.02
2023-02-14T07:14:32.251Z,2.04
2023-02-14T07:15:32.316Z,2.08
2023-02-14T07:16:32.222Z,2.04
2023-02-14T07:17:32.223Z,2.11
2023-02-14T07:18:32.196Z,2.11
2023-02-14T07:19:32.188Z,2.10
2023-02-14T07:20:32.170Z,2.18
2023-02-14T07:21:32.178Z,2.18
2023-02-14T07:22:32.158Z,2.24
2023-02-14T07:23:32.136Z,2.22
2023-02-14T07:24:32.149Z,2.25
2023-02-14T07:25:32.112Z,2.24
2023-02-14T07:26:32.095Z,2.28
2023-02-14T07:27:32.100Z,2.32
2023-02-14T07:28:32.069Z,2.32
2023-02-14T07:29:32.057Z,2.39
2023-02-14T07:30:32.047Z,2.33
2023-02-14T07:31:32.242Z,2.43
2023-02-14T07:32:32.031Z,2.33
2023-02-14T07:33:32.019Z,2.39
2023-02-14T07:34:31.992Z,2.38
2023-02-14T07:35:32.025Z,2.36
2023-02-14T07:36:31.972Z,2.39
2023-02-14T07:37:31.972Z,2.38
2023-02-14T07:38:31.944Z,2.36
2023-02-14T07:39:31.928Z,2.33
2023-02-14T07:40:31.953Z,2.43
2023-02-14T07:41:31.903Z,2.42
2023-02-14T07:42:31.887Z,2.46
2023-02-14T07:43:31.892Z,2.42
2023-02-14T07:44:31.865Z,2.39
2023-02-14T07:45:31.847Z,2.42
2023-02-14T07:46:31.919Z,2.44
2023-02-14T07:47:31.825Z,2.50
2023-02-14T07:48:34.004Z,2.54
2023-02-14T07:49:31.794Z,2.56
2023-02-14T07:50:31.781Z,2.61
2023-02-14T07:51:31.777Z,2.64
2023-02-14T07:52:31.756Z,2.56
2023-02-14T07:53:31.762Z,2.51
2023-02-14T07:54:31.740Z,2.56
2023-02-14T07:55:31.735Z,2.62
2023-02-14T07:56:31.775Z,2.68
2023-02-14T07:57:31.712Z,2.69
2023-02-14T07:58:31.697Z,2.75
2023-02-14T07:59:31.666Z,2.80
2023-02-14T08:00:31.650Z,2.69
2023-02-14T08:01:31.719Z,2.72
2023-02-14T08:02:31.631Z,2.68
2023-02-14T08:03:31.636Z,2.69
2023-02-14T08:04:33.583Z,2.65
2023-02-14T08:05:31.589Z,2.67
2023-02-14T08:06:31.575Z,2.74
2023-02-14T08:07:31.583Z,2.80
2023-02-14T08:08:31.575Z,2.79
2023-02-14T08:09:31.545Z,2.82
2023-02-14T08:10:31.529Z,2.79
2023-02-14T08:11:31.510Z,2.80
2023-02-14T08:12:31.547Z,2.80
2023-02-14T08:13:31.594Z,2.77
2023-02-14T08:14:31.471Z,2.80
2023-02-14T08:15:31.458Z,2.85
2023-02-14T08:16:31.572Z,2.89
2023-02-14T08:17:31.436Z,2.89
2023-02-14T08:18:31.430Z,2.92
2023-02-14T08:19:31.408Z,2.92
2023-02-14T08:20:31.391Z,2.87
2023-02-14T08:21:31.381Z,2.92
2023-02-14T08:22:31.364Z,2.93
2023-02-14T08:23:31.373Z,2.90
2023-02-14T08:24:31.343Z,2.85
2023-02-14T08:25:31.328Z,2.83
2023-02-14T08:26:31.308Z,2.85
2023-02-14T08:27:31.300Z,2.80
2023-02-14T08:28:31.326Z,2.86
2023-02-14T08:29:31.294Z,2.97
2023-02-14T08:30:31.372Z,3.03
2023-02-14T08:31:35.999Z,3.05
2023-02-14T08:32:32.362Z,3.11
2023-02-14T08:33:31.233Z,3.07
2023-02-14T08:34:31.210Z,3.07
2023-02-14T08:35:31.197Z,3.11
2023-02-14T08:36:31.185Z,3.21
2023-02-14T08:37:31.171Z,3.18
2023-02-14T08:38:31.175Z,3.11
2023-02-14T08:39:31.146Z,3.04
2023-02-14T08:40:31.130Z,2.97
2023-02-14T08:41:31.137Z,3.10
2023-02-14T08:42:31.112Z,3.07
2023-02-14T08:43:33.278Z,3.01
2023-02-14T08:44:31.107Z,3.10
2023-02-14T08:45:31.086Z,3.13
2023-02-14T08:46:31.210Z,3.25
2023-02-14T08:47:31.042Z,3.23
2023-02-14T08:48:31.043Z,3.31
2023-02-14T08:49:31.023Z,3.25
2023-02-14T08:50:31.018Z,3.25
2023-02-14T08:51:31.013Z,3.23
2023-02-14T08:52:30.976Z,3.34
2023-02-14T08:53:31.018Z,3.31
2023-02-14T08:54:30.954Z,3.31
2023-02-14T08:55:30.946Z,3.29
2023-02-14T08:56:30.926Z,3.25
2023-02-14T08:57:30.917Z,3.32
2023-02-14T08:58:31.945Z,3.47
2023-02-14T08:59:30.952Z,3.56
2023-02-14T09:00:32.035Z,3.53
2023-02-14T09:01:30.944Z,3.56
2023-02-14T09:02:30.854Z,3.60
2023-02-14T09:03:30.857Z,3.66
2023-02-14T09:04:30.916Z,3.70
2023-02-14T09:05:30.836Z,3.68
2023-02-14T09:06:30.815Z,3.60
2023-02-14T09:07:30.784Z,3.60
2023-02-14T09:08:30.803Z,3.69
2023-02-14T09:09:30.833Z,3.68
2023-02-14T09:10:30.787Z,3.74
2023-02-14T09:11:30.751Z,3.74
2023-02-14T09:12:30.767Z,3.77
2023-02-14T09:13:30.712Z,3.78
2023-02-14T09:14:32.140Z,3.84
2023-02-14T09:15:30.701Z,3.80
2023-02-14T09:16:30.766Z,3.77
2023-02-14T09:17:30.664Z,3.78
2023-02-14T09:18:30.644Z,3.73
2023-02-14T09:19:30.730Z,3.73
2023-02-14T09:20:30.634Z,3.56
2023-02-14T09:21:30.671Z,3.65
2023-02-14T09:22:30.638Z,3.70
2023-02-14T09:23:30.588Z,3.62
2023-02-14T09:24:30.580Z,3.76
2023-02-14T09:25:30.554Z,3.84
2023-02-14T09:26:30.547Z,3.96
2023-02-14T09:27:30.530Z,3.88
2023-02-14T09:28:30.601Z,3.77
2023-02-14T09:29:30.537Z,3.56
2023-02-14T09:30:30.583Z,3.59
2023-02-14T09:31:30.590Z,3.45
2023-02-14T09:32:30.601Z,3.48
2023-02-14T09:33:30.452Z,3.68
2023-02-14T09:34:30.451Z,3.76
2023-02-14T09:35:30.431Z,3.84
2023-02-14T09:36:30.404Z,3.87
2023-02-14T09:37:30.399Z,3.96
2023-02-14T09:38:30.389Z,3.95
2023-02-14T09:39:30.381Z,3.88
2023-02-14T09:40:30.355Z,3.88
2023-02-14T09:41:30.402Z,3.59
2023-02-14T09:42:30.332Z,3.65
2023-02-14T09:43:30.318Z,3.69
2023-02-14T09:44:30.312Z,3.55
2023-02-14T09:45:30.358Z,3.51
2023-02-14T09:46:30.271Z,3.56
2023-02-14T09:47:30.264Z,3.66
2023-02-14T09:48:30.273Z,3.70
2023-02-14T09:49:30.474Z,3.65
2023-02-14T09:50:30.219Z,3.69
2023-02-14T09:51:30.212Z,3.73
2023-02-14T09:52:30.204Z,3.73
2023-02-14T09:53:30.193Z,3.76
2023-02-14T09:54:30.182Z,3.80
2023-02-14T09:55:30.165Z,3.65
2023-02-14T09:56:31.079Z,3.74
2023-02-14T09:57:30.131Z,3.70
2023-02-14T09:58:30.119Z,3.76
2023-02-14T09:59:30.130Z,3.78
2023-02-14T10:00:30.107Z,3.91
2023-02-14T10:01:30.168Z,3.87
2023-02-14T10:02:30.164Z,3.94
2023-02-14T10:03:30.055Z,4.02
2023-02-14T10:04:30.105Z,4.08
2023-02-14T10:05:30.037Z,4.16
2023-02-14T10:06:30.022Z,3.96
2023-02-14T10:07:30.013Z,3.99
2023-02-14T10:08:29.988Z,3.94
2023-02-14T10:09:29.981Z,3.84
2023-02-14T10:10:29.979Z,3.94
2023-02-14T10:11:29.949Z,4.08
2023-02-14T10:12:29.958Z,3.86
2023-02-14T10:13:29.929Z,3.96
2023-02-14T10:14:29.915Z,4.08
2023-02-14T10:15:29.917Z,4.05
2023-02-14T10:16:29.967Z,4.06
2023-02-14T10:17:29.887Z,4.12
2023-02-14T10:18:29.858Z,4.06
2023-02-14T10:19:29.851Z,4.02
2023-02-14T10:20:29.872Z,4.04
2023-02-14T10:21:30.806Z,4.13
2023-02-14T10:22:29.812Z,4.22
2023-02-14T10:23:29.794Z,4.31
2023-02-14T10:24:29.792Z,4.38
2023-02-14T10:25:29.785Z,4.31
2023-02-14T10:26:29.759Z,4.23
2023-02-14T10:27:29.770Z,4.16
2023-02-14T10:28:29.734Z,4.30
2023-02-14T10:29:29.720Z,4.16
2023-02-14T10:30:29.896Z,4.08
2023-02-14T10:31:29.876Z,4.04
2023-02-14T10:32:29.678Z,4.22
2023-02-14T10:33:29.685Z,4.35
2023-02-14T10:34:29.661Z,4.22
2023-02-14T10:35:29.655Z,4.30
2023-02-14T10:36:29.638Z,4.49
2023-02-14T10:37:29.609Z,4.49
2023-02-14T10:38:29.604Z,4.63
2023-02-14T10:39:29.593Z,4.75
2023-02-14T10:40:29.595Z,4.84
2023-02-14T10:41:29.558Z,4.58
2023-02-14T10:42:29.552Z,4.68
2023-02-14T10:43:29.565Z,4.87
2023-02-14T10:44:29.523Z,4.78
2023-02-14T10:45:29.521Z,4.86
2023-02-14T10:46:29.584Z,4.96
2023-02-14T10:47:29.484Z,5.05
2023-02-14T10:48:29.469Z,5.08
2023-02-14T10:49:29.450Z,5.02
2023-02-14T10:50:29.453Z,4.90
2023-02-14T10:51:29.423Z,4.89
2023-02-14T10:52:29.418Z,5.00
2023-02-14T10:53:29.400Z,5.07
2023-02-14T10:54:29.386Z,5.32
2023-02-14T10:55:32.655Z,5.57
2023-02-14T10:56:29.389Z,5.80
2023-02-14T10:57:29.350Z,5.99
2023-02-14T10:58:29.356Z,6.19
2023-02-14T10:59:29.343Z,6.38
2023-02-14T11:00:29.326Z,6.56
2023-02-14T11:01:29.302Z,6.57
2023-02-14T11:02:29.281Z,6.57
2023-02-14T11:03:29.308Z,6.38
2023-02-14T11:04:29.252Z,5.86
2023-02-14T11:05:29.258Z,5.73
2023-02-14T11:06:29.255Z,5.72
2023-02-14T11:07:29.234Z,5.68
2023-02-14T11:08:29.201Z,5.73
2023-02-14T11:09:29.187Z,5.69
2023-02-14T11:10:29.197Z,5.61
2023-02-14T11:11:29.161Z,5.56
2023-02-14T11:12:29.149Z,5.57
2023-02-14T11:13:29.139Z,5.66
2023-02-14T11:14:29.148Z,5.46
2023-02-14T11:15:29.150Z,5.38
2023-02-14T11:16:29.166Z,5.54
2023-02-14T11:17:29.146Z,5.50
2023-02-14T11:18:29.070Z,5.69
2023-02-14T11:19:29.061Z,5.72
2023-02-14T11:20:29.077Z,5.84
2023-02-14T11:21:29.033Z,6.08
2023-02-14T11:22:29.022Z,6.17
2023-02-14T11:23:29.002Z,6.19
2023-02-14T11:24:29.017Z,5.94
2023-02-14T11:25:28.979Z,5.83
2023-02-14T11:26:28.988Z,5.89
2023-02-14T11:27:28.960Z,6.02
2023-02-14T11:28:28.942Z,5.76
2023-02-14T11:29:28.932Z,5.86
2023-02-14T11:30:29.089Z,6.19
2023-02-14T11:31:29.048Z,6.48
2023-02-14T11:32:28.905Z,6.72
2023-02-14T11:33:28.872Z,7.03
2023-02-14T11:34:28.870Z,7.32
2023-02-14T11:35:28.850Z,7.48
2023-02-14T11:36:28.854Z,7.56
2023-02-14T11:37:28.831Z,7.63
2023-02-14T11:38:28.813Z,7.58
2023-02-14T11:39:28.806Z,6.57
2023-02-14T11:40:28.784Z,6.64
2023-02-14T11:41:28.793Z,6.46
2023-02-14T11:42:28.762Z,6.39
2023-02-14T11:43:28.742Z,6.20
2023-02-14T11:44:28.735Z,6.02
2023-02-14T11:45:28.721Z,6.09
2023-02-14T11:46:28.764Z,6.16
2023-02-14T11:47:28.709Z,6.31
2023-02-14T11:48:37.650Z,6.38
2023-02-14T11:49:29.670Z,6.44
2023-02-14T11:50:28.656Z,6.49
2023-02-14T11:51:28.655Z,6.48
2023-02-14T11:52:28.626Z,6.59
2023-02-14T11:53:28.613Z,6.87
2023-02-14T11:54:28.597Z,7.18
2023-02-14T11:55:28.592Z,7.36
2023-02-14T11:56:28.586Z,7.60
2023-02-14T11:57:28.564Z,7.67
2023-02-14T11:58:28.552Z,7.28
2023-02-14T11:59:28.531Z,6.72
2023-02-14T12:00:28.528Z,6.87
2023-02-14T12:01:28.523Z,7.15
2023-02-14T12:02:28.574Z,7.24
2023-02-14T12:03:28.514Z,7.43
2023-02-14T12:04:30.767Z,7.43
2023-02-14T12:05:28.455Z,7.45
2023-02-14T12:06:28.462Z,7.47
2023-02-14T12:07:28.428Z,7.70
2023-02-14T12:08:28.417Z,8.26
2023-02-14T12:09:28.401Z,7.83
2023-02-14T12:10:28.393Z,8.12
2023-02-14T12:11:28.387Z,8.53
2023-02-14T12:12:28.360Z,8.03
2023-02-14T12:13:28.345Z,8.24
2023-02-14T12:14:28.340Z,9.29
2023-02-14T12:15:28.393Z,10.40
2023-02-14T12:16:28.411Z,10.35
2023-02-14T12:17:28.294Z,11.11
2023-02-14T12:18:28.284Z,11.69
2023-02-14T12:19:28.314Z,12.21
2023-02-14T12:20:28.260Z,11.73
2023-02-14T12:21:28.278Z,11.87
2023-02-14T12:22:28.498Z,13.00
2023-02-14T12:23:28.214Z,13.72
2023-02-14T12:24:28.208Z,14.47
2023-02-14T12:25:28.226Z,14.82
2023-02-14T12:26:28.188Z,15.46
2023-02-14T12:27:28.180Z,15.59
2023-02-14T12:28:28.155Z,14.81
2023-02-14T12:29:28.135Z,12.42
2023-02-14T12:30:28.199Z,12.29
2023-02-14T12:31:28.239Z,12.70
2023-02-14T12:32:28.111Z,13.71
2023-02-14T12:33:28.084Z,13.41
2023-02-14T12:34:28.075Z,12.65
2023-02-14T12:35:28.076Z,12.04
2023-02-14T12:36:28.057Z,13.05
2023-02-14T12:37:28.024Z,13.12
2023-02-14T12:38:28.016Z,13.22
2023-02-14T12:39:27.999Z,12.47
2023-02-14T12:40:27.985Z,12.46
2023-02-14T12:41:27.978Z,12.40
2023-02-14T12:42:27.971Z,10.86
2023-02-14T12:43:27.946Z,10.68
2023-02-14T12:44:27.937Z,10.78
2023-02-14T12:45:27.923Z,10.12
2023-02-14T12:47:27.907Z,11.23
2023-02-14T12:48:27.880Z,11.35
2023-02-14T12:49:27.866Z,11.15
2023-02-14T12:50:27.860Z,10.79
2023-02-14T12:51:27.866Z,11.07
2023-02-14T12:52:27.850Z,12.65
2023-02-14T12:53:27.822Z,14.18
2023-02-14T12:54:27.800Z,15.19
2023-02-14T12:55:27.792Z,14.33
2023-02-14T12:56:27.777Z,13.62
2023-02-14T12:57:27.778Z,13.62
2023-02-14T12:58:27.754Z,14.25
2023-02-14T12:59:27.747Z,14.60
2023-02-14T13:00:27.731Z,15.09
2023-02-14T13:01:29.187Z,15.44
2023-02-14T13:02:27.857Z,15.28
2023-02-14T13:03:27.685Z,14.51
2023-02-14T13:04:27.676Z,13.81
2023-02-14T13:05:27.659Z,13.90
2023-02-14T13:06:27.652Z,13.86
2023-02-14T13:07:27.679Z,13.44
2023-02-14T13:08:27.622Z,13.89
2023-02-14T13:09:27.693Z,13.83
2023-02-14T13:10:27.654Z,14.04
2023-02-14T13:11:27.774Z,14.68
2023-02-14T13:12:27.702Z,14.91
2023-02-14T13:13:27.550Z,14.54
2023-02-14T13:14:27.607Z,14.18
2023-02-14T13:15:27.533Z,14.22